Heartwellville, Vermont
Current Conditions -  °F | °C
As of 2:52 PM on Wednesday 28 Jan 2015 (Local Time) from KAQW Reporting Station
Clear Clear  
Wind Chill:   Ceiling: Unl
Heat Index: 19°   Visibility: 10mi
Dew Point:   Wind: 8mph
Humidity: 50%   Direction: 280°W
Pressure: 30.09"   Gusts: NA
Location:  42.7989°N, 72.9719°W
Report Text: KAQW 281952Z AUTO 28007KT 240V320 10SM CLR M07/M16 A3009 RMK AO2 SLP202 T10721161
Loading
Personal Weather Stations






























Interactive Weather Map New forecast layout! Learn more

10-Day Weather Forecast

Advertisements
Track Severe Weather on mobile